createdAt,value
2018-09-03T00:02:11.283Z,60.00
2018-09-03T00:04:39.859Z,60.00
2018-09-03T00:07:08.294Z,60.00
2018-09-03T00:09:41.113Z,60.10
2018-09-03T00:12:10.117Z,60.00
2018-09-03T00:14:38.688Z,60.00
2018-09-03T00:17:07.509Z,60.40
2018-09-03T00:19:36.169Z,60.00
2018-09-03T00:22:04.765Z,60.00
2018-09-03T00:24:33.190Z,60.00
2018-09-03T00:27:01.633Z,59.50
2018-09-03T00:29:30.260Z,60.00
2018-09-03T00:32:04.055Z,60.10
2018-09-03T00:34:37.900Z,60.00
2018-09-03T00:37:11.812Z,60.00
2018-09-03T00:39:45.590Z,60.00
2018-09-03T00:42:19.455Z,60.00
2018-09-03T00:44:53.245Z,60.10
2018-09-03T00:47:21.683Z,60.10
2018-09-03T00:49:50.134Z,60.10
2018-09-03T00:52:18.584Z,60.00
2018-09-03T00:54:47.034Z,60.10
2018-09-03T00:57:15.462Z,60.00
2018-09-03T00:59:43.937Z,60.10
2018-09-03T01:02:12.509Z,60.10
2018-09-03T01:04:41.073Z,60.00
2018-09-03T01:07:09.532Z,60.10
2018-09-03T01:09:37.969Z,60.00
2018-09-03T01:12:06.495Z,60.00
2018-09-03T01:14:34.998Z,60.00
2018-09-03T01:17:03.441Z,60.00
2018-09-03T01:19:31.872Z,60.00
2018-09-03T01:22:00.346Z,60.10
2018-09-03T01:24:28.980Z,60.00
2018-09-03T01:26:57.412Z,60.00
2018-09-03T01:29:26.053Z,60.10
2018-09-03T01:31:55.956Z,60.00
2018-09-03T01:34:25.345Z,60.00
2018-09-03T01:36:54.053Z,60.00
2018-09-03T01:39:22.473Z,60.10
2018-09-03T01:41:50.952Z,60.10
2018-09-03T01:44:19.517Z,60.00
2018-09-03T01:46:48.013Z,60.00
2018-09-03T01:49:16.473Z,60.10
2018-09-03T01:51:44.985Z,59.90
2018-09-03T01:54:13.412Z,60.10
2018-09-03T01:56:41.861Z,60.00
2018-09-03T01:59:10.306Z,59.90
2018-09-03T02:01:38.701Z,59.90
2018-09-03T02:04:07.140Z,60.10
2018-09-03T02:06:35.557Z,60.80
2018-09-03T02:09:06.203Z,59.90
2018-09-03T02:11:34.613Z,59.90
2018-09-03T02:14:03.081Z,60.10
2018-09-03T02:16:31.502Z,60.00
2018-09-03T02:18:59.935Z,60.00
2018-09-03T02:21:28.349Z,60.00
2018-09-03T02:23:56.776Z,60.00
2018-09-03T02:26:25.225Z,60.00
2018-09-03T02:28:53.654Z,60.00
2018-09-03T02:31:22.071Z,60.10
2018-09-03T02:33:50.547Z,60.10
2018-09-03T02:36:19.053Z,60.00
2018-09-03T02:38:47.503Z,60.10
2018-09-03T02:41:16.193Z,60.00
2018-09-03T02:43:44.625Z,60.00
2018-09-03T02:46:13.091Z,60.00
2018-09-03T02:48:41.508Z,60.00
2018-09-03T02:51:10.640Z,60.10
2018-09-03T02:53:39.108Z,60.00
2018-09-03T02:56:07.605Z,59.90
2018-09-03T02:58:36.060Z,60.00
2018-09-03T03:01:04.481Z,59.90
2018-09-03T03:03:32.913Z,60.00
2018-09-03T03:06:01.349Z,60.00
2018-09-03T03:08:29.887Z,60.00
2018-09-03T03:10:58.365Z,59.90
2018-09-03T03:13:27.074Z,60.00
2018-09-03T03:15:55.503Z,59.90
2018-09-03T03:18:23.986Z,60.00
2018-09-03T03:20:52.450Z,60.00
2018-09-03T03:23:21.313Z,60.00
2018-09-03T03:25:49.742Z,60.00
2018-09-03T03:28:18.189Z,60.00
2018-09-03T03:30:46.635Z,60.00
2018-09-03T03:33:15.165Z,60.00
2018-09-03T03:35:43.609Z,60.00
2018-09-03T03:38:12.065Z,60.00
2018-09-03T03:40:40.486Z,60.00
2018-09-03T03:43:08.917Z,60.00
2018-09-03T03:45:37.348Z,60.00
2018-09-03T03:48:05.912Z,60.00
2018-09-03T03:50:34.337Z,59.90
2018-09-03T03:53:03.057Z,60.00
2018-09-03T03:55:31.542Z,60.00
2018-09-03T03:57:59.991Z,60.00
2018-09-03T04:00:28.614Z,60.00
2018-09-03T04:02:57.040Z,60.00
2018-09-03T04:05:25.459Z,60.00
2018-09-03T04:07:53.868Z,60.00
2018-09-03T04:10:22.410Z,60.80
2018-09-03T04:12:53.797Z,60.00
2018-09-03T04:15:23.278Z,60.00
2018-09-03T04:17:51.702Z,60.00
2018-09-03T04:20:20.166Z,60.00
2018-09-03T04:22:48.873Z,60.00
2018-09-03T04:25:17.289Z,60.00
2018-09-03T04:27:45.867Z,60.00
2018-09-03T04:30:14.373Z,60.00
2018-09-03T04:32:42.838Z,60.00
2018-09-03T04:35:11.421Z,60.00
2018-09-03T04:37:39.854Z,60.80
2018-09-03T04:40:08.281Z,60.00
2018-09-03T04:42:36.714Z,60.00
2018-09-03T04:45:05.170Z,60.00
2018-09-03T04:47:33.781Z,60.00
2018-09-03T04:50:02.209Z,60.10
2018-09-03T04:52:30.673Z,60.00
2018-09-03T04:54:59.133Z,60.30
2018-09-03T04:57:27.725Z,60.00
2018-09-03T04:59:56.157Z,60.00
2018-09-03T05:02:24.833Z,60.00
2018-09-03T05:04:53.261Z,60.00
2018-09-03T05:07:22.537Z,60.00
2018-09-03T05:09:50.972Z,60.00
2018-09-03T05:12:19.420Z,60.00
2018-09-03T05:14:48.019Z,60.00
2018-09-03T05:17:16.627Z,60.00
2018-09-03T05:19:45.198Z,60.00
2018-09-03T05:22:13.631Z,60.00
2018-09-03T05:24:42.057Z,60.00
2018-09-03T05:27:10.518Z,60.10
2018-09-03T05:29:38.979Z,60.00
2018-09-03T05:32:07.632Z,60.00
2018-09-03T05:34:36.076Z,60.10
2018-09-03T05:37:06.467Z,60.00
2018-09-03T05:39:34.899Z,60.00
2018-09-03T05:42:03.414Z,60.00
2018-09-03T05:44:31.851Z,60.00
2018-09-03T05:47:00.890Z,60.00
2018-09-03T05:49:29.564Z,60.00
2018-09-03T05:51:58.067Z,60.10
2018-09-03T05:54:26.518Z,60.00
2018-09-03T05:56:55.833Z,59.90
2018-09-03T05:59:24.293Z,60.00
2018-09-03T06:01:55.878Z,59.90
2018-09-03T06:04:25.131Z,60.00
2018-09-03T06:06:53.580Z,60.00
2018-09-03T06:09:22.079Z,60.00
2018-09-03T06:11:50.517Z,60.60
2018-09-03T06:14:18.937Z,60.00
2018-09-03T06:16:47.410Z,60.00
2018-09-03T06:19:15.943Z,60.00
2018-09-03T06:21:44.589Z,60.00
2018-09-03T06:24:13.018Z,60.00
2018-09-03T06:26:41.537Z,60.00
2018-09-03T06:29:09.939Z,59.90
2018-09-03T06:31:38.591Z,60.00
2018-09-03T06:34:07.161Z,60.00
2018-09-03T06:36:35.843Z,60.00
2018-09-03T06:39:05.517Z,59.90
2018-09-03T06:41:33.978Z,60.00
2018-09-03T06:44:02.496Z,60.00
2018-09-03T06:46:30.969Z,60.00
2018-09-03T06:48:59.642Z,60.00
2018-09-03T06:51:28.089Z,60.00
2018-09-03T06:53:56.678Z,60.00
2018-09-03T06:56:25.101Z,60.00
2018-09-03T06:58:53.518Z,59.90
2018-09-03T07:01:21.960Z,60.00
2018-09-03T07:03:51.530Z,60.00
2018-09-03T07:06:25.593Z,59.90
2018-09-03T07:08:54.217Z,60.00
2018-09-03T07:11:22.765Z,60.00
2018-09-03T07:13:51.263Z,60.00
2018-09-03T07:16:19.685Z,60.00
2018-09-03T07:18:48.648Z,60.00
2018-09-03T07:21:17.037Z,60.00
2018-09-03T07:23:45.534Z,60.00
2018-09-03T07:26:13.970Z,60.00
2018-09-03T07:28:42.565Z,60.00
2018-09-03T07:31:11.005Z,60.00
2018-09-03T07:33:43.898Z,60.00
2018-09-03T07:36:20.439Z,60.00
2018-09-03T07:38:48.898Z,60.00
2018-09-03T07:41:17.377Z,60.00
2018-09-03T07:43:45.857Z,60.00
2018-09-03T07:46:15.626Z,60.00
2018-09-03T07:48:47.048Z,60.00
2018-09-03T07:51:15.502Z,60.00
2018-09-03T07:53:44.117Z,59.90
2018-09-03T07:56:12.700Z,59.90
2018-09-03T07:58:41.242Z,60.00
2018-09-03T08:01:09.672Z,60.00
2018-09-03T08:03:38.321Z,60.00
2018-09-03T08:06:06.859Z,59.90
2018-09-03T08:08:35.626Z,60.00
2018-09-03T08:11:04.180Z,60.00
2018-09-03T08:13:36.708Z,59.90
2018-09-03T08:16:05.974Z,59.90
2018-09-03T08:18:34.682Z,60.00
2018-09-03T08:21:03.231Z,59.90
2018-09-03T08:23:31.682Z,59.90
2018-09-03T08:26:00.159Z,59.90
2018-09-03T08:28:28.573Z,59.90
2018-09-03T08:30:57.179Z,59.90
2018-09-03T08:33:25.610Z,59.90
2018-09-03T08:35:54.093Z,59.90
2018-09-03T08:38:22.523Z,59.90
2018-09-03T08:40:51.281Z,59.90
2018-09-03T08:43:19.717Z,59.90
2018-09-03T08:45:48.164Z,59.90
2018-09-03T08:48:16.617Z,60.20
2018-09-03T08:50:45.207Z,59.90
2018-09-03T08:53:13.774Z,59.90
2018-09-03T08:55:42.387Z,59.90
2018-09-03T08:58:10.891Z,59.90
2018-09-03T09:00:39.314Z,59.90
2018-09-03T09:03:11.963Z,59.90
2018-09-03T09:05:51.908Z,59.90
2018-09-03T09:08:20.389Z,60.00
2018-09-03T09:10:48.903Z,60.00
2018-09-03T09:13:19.317Z,59.90
2018-09-03T09:15:48.313Z,59.90
2018-09-03T09:18:16.908Z,59.90
2018-09-03T09:20:45.889Z,59.90
2018-09-03T09:23:14.478Z,60.70
2018-09-03T09:25:42.927Z,59.90
2018-09-03T09:28:11.371Z,60.00
2018-09-03T09:30:40.058Z,59.80
2018-09-03T09:33:08.574Z,59.90
2018-09-03T09:35:37.043Z,60.00
2018-09-03T09:38:05.712Z,59.90
2018-09-03T09:40:34.132Z,59.90
2018-09-03T09:43:02.664Z,59.90
2018-09-03T09:45:31.147Z,59.90
2018-09-03T09:48:00.601Z,59.90
2018-09-03T09:50:29.029Z,59.90
2018-09-03T09:52:57.492Z,59.90
2018-09-03T09:55:26.115Z,59.90
2018-09-03T09:57:54.580Z,59.80
2018-09-03T10:00:28.478Z,59.80
2018-09-03T10:02:56.904Z,59.90
2018-09-03T10:05:25.358Z,60.10
2018-09-03T10:07:53.773Z,59.80
2018-09-03T10:10:22.262Z,59.80
2018-09-03T10:12:50.690Z,59.80
2018-09-03T10:15:19.111Z,59.80
2018-09-03T10:17:47.563Z,60.00
2018-09-03T10:20:15.986Z,59.80
2018-09-03T10:22:44.562Z,59.80
2018-09-03T10:25:12.988Z,59.80
2018-09-03T10:27:41.446Z,59.80
2018-09-03T10:30:09.884Z,59.80
2018-09-03T10:32:38.564Z,59.80
2018-09-03T10:35:07.455Z,59.80
2018-09-03T10:37:35.884Z,59.80
2018-09-03T10:40:04.404Z,59.80
2018-09-03T10:42:32.894Z,59.80
2018-09-03T10:45:01.310Z,59.70
2018-09-03T10:47:29.799Z,59.70
2018-09-03T10:49:58.201Z,59.70
2018-09-03T10:52:26.667Z,59.70
2018-09-03T10:54:55.145Z,59.70
2018-09-03T10:57:23.604Z,59.70
2018-09-03T10:59:52.050Z,59.70
2018-09-03T11:02:20.557Z,59.70
2018-09-03T11:04:49.004Z,59.70
2018-09-03T11:07:17.693Z,59.60
2018-09-03T11:09:46.127Z,59.70
2018-09-03T11:12:14.673Z,59.70
2018-09-03T11:14:43.145Z,59.60
2018-09-03T11:17:11.574Z,59.70
2018-09-03T11:19:43.326Z,60.40
2018-09-03T11:22:11.908Z,59.70
2018-09-03T11:24:40.325Z,59.60
2018-09-03T11:27:08.757Z,59.20
2018-09-03T11:29:39.610Z,59.70
2018-09-03T11:32:08.877Z,59.70
2018-09-03T11:34:38.086Z,59.70
2018-09-03T11:37:06.768Z,59.70
2018-09-03T11:39:35.198Z,59.30
2018-09-03T11:42:03.693Z,60.40
2018-09-03T11:44:32.122Z,59.80
2018-09-03T11:47:00.682Z,59.70
2018-09-03T11:49:29.106Z,59.70
2018-09-03T11:51:57.696Z,59.70
2018-09-03T11:54:26.504Z,59.70
2018-09-03T11:56:54.956Z,59.70
2018-09-03T11:59:23.518Z,59.70
2018-09-03T12:01:52.243Z,59.80
2018-09-03T12:04:20.884Z,59.80
2018-09-03T12:06:49.380Z,59.70
2018-09-03T12:09:17.824Z,59.80
2018-09-03T12:14:39.618Z,59.70
2018-09-03T12:17:08.090Z,59.80
2018-09-03T12:19:36.641Z,59.80
2018-09-03T12:22:05.072Z,59.90
2018-09-03T12:24:33.509Z,59.80
2018-09-03T12:27:01.952Z,59.80
2018-09-03T12:29:30.387Z,59.90
2018-09-03T12:31:58.822Z,59.90
2018-09-03T12:34:27.253Z,59.90
2018-09-03T12:36:55.699Z,59.90
2018-09-03T12:39:24.152Z,59.90
2018-09-03T12:41:52.603Z,59.90
2018-09-03T12:44:21.036Z,59.90
2018-09-03T12:46:49.466Z,60.00
2018-09-03T12:49:17.900Z,59.90
2018-09-03T12:51:46.319Z,59.90
2018-09-03T12:54:14.749Z,59.90
2018-09-03T12:56:43.199Z,59.90
2018-09-03T12:59:11.807Z,59.90
2018-09-03T13:01:40.256Z,60.00
2018-09-03T13:04:08.745Z,60.00
2018-09-03T13:06:37.228Z,60.00
2018-09-03T13:09:07.055Z,60.00
2018-09-03T13:11:35.476Z,60.00
2018-09-03T13:14:03.897Z,60.00
2018-09-03T13:16:32.902Z,60.00
2018-09-03T13:19:01.340Z,60.00
2018-09-03T13:21:29.825Z,60.20
2018-09-03T13:23:58.275Z,60.70
2018-09-03T13:26:26.847Z,60.00
2018-09-03T13:28:55.750Z,60.80
2018-09-03T13:31:24.197Z,60.00
2018-09-03T13:33:52.901Z,59.90
2018-09-03T13:36:21.510Z,59.90
2018-09-03T13:38:49.993Z,59.90
2018-09-03T13:41:18.488Z,60.00
2018-09-03T13:43:47.293Z,59.90
2018-09-03T13:46:15.719Z,59.90
2018-09-03T13:48:44.197Z,59.90
2018-09-03T13:51:12.636Z,60.00
2018-09-03T13:53:41.069Z,60.00
2018-09-03T13:56:09.553Z,59.90
2018-09-03T13:58:37.970Z,59.90
2018-09-03T14:01:06.403Z,59.90
2018-09-03T14:03:34.826Z,60.00
2018-09-03T14:06:03.536Z,60.00
2018-09-03T14:08:31.953Z,60.00
2018-09-03T14:11:00.374Z,59.90
2018-09-03T14:13:28.782Z,60.00
2018-09-03T14:15:57.210Z,60.00
2018-09-03T14:18:25.633Z,60.00
2018-09-03T14:20:54.284Z,60.00
2018-09-03T14:23:23.572Z,60.00
2018-09-03T14:25:52.069Z,60.00
2018-09-03T14:28:20.666Z,59.90
2018-09-03T14:30:49.209Z,60.00
2018-09-03T14:33:17.821Z,60.00
2018-09-03T14:35:46.334Z,60.00
2018-09-03T14:38:14.775Z,59.90
2018-09-03T14:40:43.185Z,60.00
2018-09-03T14:43:11.754Z,60.00
2018-09-03T14:45:40.174Z,60.00
2018-09-03T14:48:08.897Z,59.90
2018-09-03T14:50:37.257Z,60.00
2018-09-03T14:53:05.682Z,59.90
2018-09-03T14:55:34.122Z,59.90
2018-09-03T14:58:02.559Z,59.90
2018-09-03T15:00:30.999Z,59.90
2018-09-03T15:02:59.498Z,59.90
2018-09-03T15:05:27.916Z,60.00
2018-09-03T15:07:56.674Z,59.90
2018-09-03T15:10:25.206Z,59.90
2018-09-03T15:12:54.062Z,59.90
2018-09-03T15:15:23.015Z,59.90
2018-09-03T15:17:51.454Z,59.90
2018-09-03T15:20:19.861Z,59.90
2018-09-03T15:22:48.394Z,59.90
2018-09-03T15:25:16.824Z,59.80
2018-09-03T15:27:45.365Z,59.90
2018-09-03T15:30:13.790Z,59.90
2018-09-03T15:32:42.209Z,59.80
2018-09-03T15:35:10.625Z,59.80
2018-09-03T15:37:39.061Z,59.90
2018-09-03T15:40:07.551Z,59.80
2018-09-03T15:42:35.982Z,59.80
2018-09-03T15:45:04.429Z,59.90
2018-09-03T15:47:33.274Z,59.80
2018-09-03T15:50:01.707Z,59.80
2018-09-03T15:52:30.185Z,59.80
2018-09-03T15:54:58.756Z,59.80
2018-09-03T15:57:27.220Z,59.90
2018-09-03T15:59:55.719Z,59.90
2018-09-03T16:02:24.317Z,60.00
2018-09-03T16:04:52.842Z,59.90
2018-09-03T16:07:21.289Z,59.90
2018-09-03T16:09:50.053Z,59.90
2018-09-03T16:12:18.538Z,59.90
2018-09-03T16:14:47.000Z,59.80
2018-09-03T16:17:15.516Z,59.90
2018-09-03T16:19:44.001Z,59.90
2018-09-03T16:22:12.499Z,59.90
2018-09-03T16:24:40.983Z,59.90
2018-09-03T16:27:09.618Z,59.90
2018-09-03T16:29:38.087Z,59.90
2018-09-03T16:32:06.513Z,59.90
2018-09-03T16:34:34.928Z,59.90
2018-09-03T16:37:03.398Z,59.90
2018-09-03T16:39:31.825Z,59.90
2018-09-03T16:42:00.386Z,59.90
2018-09-03T16:44:28.998Z,59.90
2018-09-03T16:46:57.437Z,59.90
2018-09-03T16:49:25.849Z,59.90
2018-09-03T16:51:54.270Z,59.90
2018-09-03T16:54:22.741Z,59.90
2018-09-03T16:56:51.342Z,59.90
2018-09-03T16:59:20.213Z,59.90
2018-09-03T17:01:48.685Z,59.90
2018-09-03T17:04:17.151Z,59.90
2018-09-03T17:06:45.656Z,59.90
2018-09-03T17:09:14.285Z,59.90
2018-09-03T17:11:42.724Z,59.90
2018-09-03T17:14:11.358Z,59.90
2018-09-03T17:16:39.802Z,60.00
2018-09-03T17:19:08.242Z,59.90
2018-09-03T17:21:37.753Z,59.90
2018-09-03T17:24:06.317Z,59.90
2018-09-03T17:26:34.901Z,59.90
2018-09-03T17:29:03.461Z,59.90
2018-09-03T17:31:31.877Z,59.90
2018-09-03T17:34:00.331Z,59.90
2018-09-03T17:36:28.793Z,59.90
2018-09-03T17:38:57.254Z,59.90
2018-09-03T17:41:25.714Z,60.00
2018-09-03T17:43:54.266Z,60.00
2018-09-03T17:46:22.953Z,60.00
2018-09-03T17:48:51.629Z,60.00
2018-09-03T17:51:20.341Z,60.00
2018-09-03T17:53:48.884Z,60.20
2018-09-03T17:56:17.335Z,60.20
2018-09-03T17:58:45.807Z,60.20
2018-09-03T18:01:14.254Z,60.60
2018-09-03T18:03:42.754Z,60.20
2018-09-03T18:06:11.243Z,60.20
2018-09-03T18:08:39.953Z,60.20
2018-09-03T18:11:08.972Z,60.20
2018-09-03T18:13:37.541Z,60.20
2018-09-03T18:16:06.077Z,60.20
2018-09-03T18:18:34.902Z,60.30
2018-09-03T18:21:03.496Z,60.20
2018-09-03T18:23:32.242Z,60.90
2018-09-03T18:26:01.004Z,60.20
2018-09-03T18:28:29.653Z,60.20
2018-09-03T18:30:58.781Z,60.20
2018-09-03T18:33:27.385Z,61.00
2018-09-03T18:35:56.483Z,60.20
2018-09-03T18:38:24.980Z,60.20
2018-09-03T18:40:53.525Z,60.30
2018-09-03T18:43:22.732Z,60.10
2018-09-03T18:45:51.507Z,60.20
2018-09-03T18:48:20.077Z,60.20
2018-09-03T18:50:48.884Z,60.20
2018-09-03T18:53:17.357Z,60.20
2018-09-03T18:55:46.537Z,61.00
2018-09-03T18:58:14.981Z,60.20
2018-09-03T19:00:43.537Z,60.20
2018-09-03T19:03:12.530Z,60.20
2018-09-03T19:05:40.962Z,60.20
2018-09-03T19:08:09.418Z,60.20
2018-09-03T19:10:38.117Z,60.20
2018-09-03T19:13:06.554Z,60.20
2018-09-03T19:15:35.455Z,60.20
2018-09-03T19:18:03.953Z,60.30
2018-09-03T19:20:33.385Z,60.20
2018-09-03T19:23:01.906Z,60.30
2018-09-03T19:25:30.388Z,60.30
2018-09-03T19:27:59.586Z,60.40
2018-09-03T19:30:28.153Z,60.40
2018-09-03T19:32:56.773Z,60.70
2018-09-03T19:35:25.774Z,60.30
2018-09-03T19:37:54.207Z,60.40
2018-09-03T19:40:23.454Z,61.10
2018-09-03T19:42:51.889Z,60.30
2018-09-03T19:45:20.505Z,60.40
2018-09-03T19:47:49.119Z,60.30
2018-09-03T19:50:17.754Z,60.40
2018-09-03T19:52:46.195Z,60.30
2018-09-03T19:55:15.268Z,60.40
2018-09-03T19:57:43.730Z,60.40
2018-09-03T20:00:12.337Z,60.40
2018-09-03T20:02:40.818Z,60.40
2018-09-03T20:05:09.716Z,60.40
2018-09-03T20:07:38.214Z,60.30
2018-09-03T20:10:06.938Z,60.20
2018-09-03T20:12:35.509Z,60.40
2018-09-03T20:15:03.974Z,60.30
2018-09-03T20:17:32.527Z,60.30
2018-09-03T20:20:01.429Z,60.30
2018-09-03T20:22:29.919Z,60.40
2018-09-03T20:24:58.535Z,60.30
2018-09-03T20:27:27.050Z,60.30
2018-09-03T20:29:56.279Z,60.40
2018-09-03T20:32:24.882Z,61.00
2018-09-03T20:36:38.206Z,60.20
2018-09-03T20:39:07.249Z,60.20
2018-09-03T20:41:35.690Z,60.20
2018-09-03T20:44:04.347Z,60.20
2018-09-03T20:46:32.830Z,60.20
2018-09-03T20:49:01.233Z,60.50
2018-09-03T20:51:29.695Z,60.30
2018-09-03T20:53:58.252Z,60.20
2018-09-03T20:56:27.189Z,60.20
2018-09-03T20:58:55.738Z,60.20
2018-09-03T21:01:24.222Z,60.30
2018-09-03T21:03:52.641Z,60.40
2018-09-03T21:06:21.073Z,60.30
2018-09-03T21:08:49.507Z,60.20
2018-09-03T21:11:17.947Z,60.30
2018-09-03T21:13:46.361Z,60.30
2018-09-03T21:16:14.765Z,60.30
2018-09-03T21:18:43.177Z,60.30
2018-09-03T21:21:11.589Z,60.30
2018-09-03T21:23:39.998Z,60.30
2018-09-03T21:26:08.405Z,60.40
2018-09-03T21:28:36.931Z,60.30
2018-09-03T21:31:05.601Z,60.30
2018-09-03T21:33:34.136Z,60.40
2018-09-03T21:36:02.583Z,60.30
2018-09-03T21:38:31.009Z,60.30
2018-09-03T21:40:59.425Z,60.40
2018-09-03T21:43:27.849Z,60.30
2018-09-03T21:45:56.266Z,60.30
2018-09-03T21:48:24.710Z,60.30
2018-09-03T21:50:53.109Z,60.30
2018-09-03T21:53:21.522Z,60.40
2018-09-03T21:55:49.930Z,60.30
2018-09-03T21:58:18.460Z,60.30
2018-09-03T22:00:46.868Z,60.40
2018-09-03T22:03:15.327Z,60.30
2018-09-03T22:05:43.737Z,60.30
2018-09-03T22:08:12.153Z,60.30
2018-09-03T22:10:40.569Z,60.30
2018-09-03T22:13:08.972Z,60.30
2018-09-03T22:15:39.002Z,60.30
2018-09-03T22:18:07.802Z,60.40
2018-09-03T22:20:36.503Z,60.30
2018-09-03T22:23:04.914Z,60.40
2018-09-03T22:25:33.342Z,60.40
2018-09-03T22:28:01.814Z,60.40
2018-09-03T22:30:30.393Z,60.30
2018-09-03T22:32:58.799Z,60.20
2018-09-03T22:35:27.582Z,60.30
2018-09-03T22:37:56.076Z,61.20
2018-09-03T22:40:24.489Z,60.30
2018-09-03T22:42:52.901Z,60.30
2018-09-03T22:45:21.313Z,60.30
2018-09-03T22:47:49.734Z,60.30
2018-09-03T22:50:18.144Z,60.50
2018-09-03T22:52:46.552Z,60.30
2018-09-03T22:55:15.014Z,60.30
2018-09-03T22:57:43.527Z,60.30
2018-09-03T23:00:11.949Z,60.30
2018-09-03T23:02:40.374Z,60.30
2018-09-03T23:05:08.826Z,60.30
2018-09-03T23:07:37.239Z,60.30
2018-09-03T23:10:06.262Z,60.30
2018-09-03T23:12:34.833Z,60.20
2018-09-03T23:15:03.392Z,60.20
2018-09-03T23:17:31.889Z,60.30
2018-09-03T23:20:00.556Z,60.20
2018-09-03T23:22:28.980Z,60.30
2018-09-03T23:24:57.425Z,60.30
2018-09-03T23:27:25.841Z,60.30
2018-09-03T23:29:54.258Z,60.30
2018-09-03T23:32:22.716Z,60.30
2018-09-03T23:34:51.142Z,60.20
2018-09-03T23:37:19.563Z,60.20
2018-09-03T23:39:47.976Z,60.30
2018-09-03T23:42:16.386Z,60.20
2018-09-03T23:44:44.818Z,60.30
2018-09-03T23:47:13.245Z,60.40
2018-09-03T23:49:41.654Z,60.20
2018-09-03T23:52:10.062Z,60.30
2018-09-03T23:54:38.614Z,60.30
2018-09-03T23:57:07.018Z,60.30
2018-09-03T23:59:35.418Z,60.70
